createdAt,value
2023-04-14T00:00:03.407Z,0.00
2023-04-14T00:02:42.540Z,0.00
2023-04-14T00:05:14.362Z,0.00
2023-04-14T00:07:43.164Z,0.00
2023-04-14T00:10:11.167Z,0.00
2023-04-14T00:12:39.238Z,0.00
2023-04-14T00:15:07.917Z,0.00
2023-04-14T00:17:37.754Z,0.00
2023-04-14T00:20:07.309Z,0.00
2023-04-14T00:22:35.341Z,0.00
2023-04-14T00:25:04.533Z,0.00
2023-04-14T00:27:37.694Z,0.00
2023-04-14T00:30:06.668Z,0.00
2023-04-14T00:32:38.631Z,0.00
2023-04-14T00:35:06.940Z,0.00
2023-04-14T00:37:37.938Z,0.00
2023-04-14T00:40:11.269Z,0.00
2023-04-14T00:42:45.719Z,0.00
2023-04-14T00:45:14.263Z,0.00
2023-04-14T00:47:47.001Z,0.00
2023-04-14T00:50:15.333Z,0.00
2023-04-14T00:52:44.879Z,0.00
2023-04-14T00:55:13.805Z,0.00
2023-04-14T00:57:41.731Z,0.00
2023-04-14T01:00:11.610Z,0.00
2023-04-14T01:02:42.873Z,0.00
2023-04-14T01:05:14.701Z,0.00
2023-04-14T01:07:43.008Z,0.00
2023-04-14T01:10:11.674Z,0.00
2023-04-14T01:13:08.632Z,0.00
2023-04-14T01:15:47.971Z,0.00
2023-04-14T01:18:27.886Z,0.00
2023-04-14T01:21:07.214Z,0.00
2023-04-14T01:23:37.275Z,0.00
2023-04-14T01:26:17.825Z,0.00
2023-04-14T01:29:22.079Z,0.00
2023-04-14T01:31:54.332Z,0.00
2023-04-14T01:34:30.057Z,0.00
2023-04-14T01:37:02.554Z,0.00
2023-04-14T01:39:39.243Z,0.00
2023-04-14T01:42:11.842Z,0.00
2023-04-14T01:44:43.110Z,0.00
2023-04-14T01:47:13.305Z,0.00
2023-04-14T01:49:42.521Z,0.00
2023-04-14T01:52:11.056Z,0.00
2023-04-14T01:54:40.180Z,0.00
2023-04-14T01:57:11.968Z,0.00
2023-04-14T01:59:41.792Z,0.00
2023-04-14T02:02:12.151Z,0.00
2023-04-14T02:04:40.648Z,0.00
2023-04-14T02:07:10.858Z,0.00
2023-04-14T02:09:39.732Z,0.00
2023-04-14T02:12:08.724Z,0.00
2023-04-14T02:14:36.665Z,0.00
2023-04-14T02:17:07.442Z,0.00
2023-04-14T02:19:35.668Z,0.00
2023-04-14T02:22:03.716Z,0.00
2023-04-14T02:24:32.319Z,0.00
2023-04-14T02:27:33.103Z,0.00
2023-04-14T02:30:12.848Z,0.00
2023-04-14T02:32:48.108Z,0.00
2023-04-14T02:35:29.136Z,0.00
2023-04-14T02:38:07.454Z,0.00
2023-04-14T02:40:38.181Z,0.00
2023-04-14T02:43:29.300Z,0.00
2023-04-14T02:46:01.184Z,0.00
2023-04-14T02:48:31.303Z,0.00
2023-04-14T02:51:00.321Z,0.00
2023-04-14T02:53:29.755Z,0.00
2023-04-14T02:56:25.754Z,0.00
2023-04-14T02:58:54.581Z,0.00
2023-04-14T03:01:23.598Z,0.00
2023-04-14T03:03:53.534Z,0.00
2023-04-14T03:06:21.985Z,0.00
2023-04-14T03:08:50.180Z,0.00
2023-04-14T03:11:21.372Z,0.00
2023-04-14T03:13:52.366Z,0.00
2023-04-14T03:16:21.504Z,0.00
2023-04-14T03:18:49.574Z,0.00
2023-04-14T03:21:19.275Z,0.00
2023-04-14T03:23:50.955Z,0.00
2023-04-14T03:26:20.317Z,0.00
2023-04-14T03:28:51.314Z,0.00
2023-04-14T03:31:19.848Z,0.00
2023-04-14T03:33:57.331Z,0.00
2023-04-14T03:36:31.225Z,0.00
2023-04-14T03:39:01.731Z,0.00
2023-04-14T03:41:37.966Z,0.00
2023-04-14T03:44:06.897Z,0.00
2023-04-14T03:46:39.788Z,0.00
2023-04-14T03:49:11.212Z,0.00
2023-04-14T03:51:39.449Z,0.00
2023-04-14T03:54:08.238Z,0.00
2023-04-14T03:56:38.458Z,0.00
2023-04-14T03:59:12.668Z,0.00
2023-04-14T04:01:42.025Z,0.00
2023-04-14T04:04:10.961Z,0.00
2023-04-14T04:08:57.550Z,0.00
2023-04-14T04:11:29.265Z,0.00
2023-04-14T04:13:59.453Z,0.00
2023-04-14T04:16:27.997Z,0.00
2023-04-14T04:18:56.074Z,0.00
2023-04-14T04:21:28.457Z,0.00
2023-04-14T04:23:59.454Z,0.00
2023-04-14T04:26:27.605Z,0.00
2023-04-14T04:29:00.679Z,0.00
2023-04-14T04:31:30.348Z,0.00
2023-04-14T04:34:02.046Z,0.00
2023-04-14T04:36:31.797Z,0.75
2023-04-14T04:39:00.493Z,1.73
2023-04-14T04:41:30.240Z,2.71
2023-04-14T04:44:02.799Z,4.88
2023-04-14T04:46:53.752Z,7.05
2023-04-14T04:49:26.394Z,8.17
2023-04-14T04:51:57.077Z,9.11
2023-04-14T04:54:25.284Z,10.00
2023-04-14T04:56:55.043Z,9.64
2023-04-14T04:59:23.233Z,10.42
2023-04-14T05:01:57.633Z,11.63
2023-04-14T05:04:26.366Z,12.41
2023-04-14T05:06:54.969Z,13.01
2023-04-14T05:09:29.398Z,13.78
2023-04-14T05:11:58.177Z,15.32
2023-04-14T05:14:27.495Z,16.69
2023-04-14T05:16:57.086Z,18.18
2023-04-14T05:19:25.443Z,19.55
2023-04-14T05:21:55.796Z,20.62
2023-04-14T05:24:27.529Z,21.62
2023-04-14T05:27:12.427Z,22.88
2023-04-14T05:29:42.331Z,24.35
2023-04-14T05:32:13.105Z,25.00
2023-04-14T05:34:41.920Z,25.37
2023-04-14T05:37:12.568Z,25.87
2023-04-14T05:39:40.620Z,26.59
2023-04-14T05:42:11.858Z,27.73
2023-04-14T05:44:42.185Z,25.86
2023-04-14T05:47:10.552Z,24.53
2023-04-14T05:49:39.245Z,24.59
2023-04-14T05:52:07.234Z,24.27
2023-04-14T05:54:43.020Z,24.67
2023-04-14T05:57:11.575Z,25.98
2023-04-14T05:59:39.661Z,27.50
2023-04-14T06:04:51.375Z,29.76
2023-04-14T06:07:19.574Z,31.84
2023-04-14T06:09:48.951Z,33.50
2023-04-14T06:12:17.040Z,34.27
2023-04-14T06:14:47.095Z,33.93
2023-04-14T06:17:17.844Z,33.73
2023-04-14T06:19:49.956Z,34.73
2023-04-14T06:22:19.932Z,35.31
2023-04-14T06:24:48.079Z,37.37
2023-04-14T06:27:16.570Z,39.47
2023-04-14T06:29:45.539Z,42.08
2023-04-14T06:32:13.963Z,44.99
2023-04-14T06:34:51.932Z,47.17
2023-04-14T06:37:21.821Z,47.02
2023-04-14T06:39:52.915Z,47.14
2023-04-14T06:42:26.045Z,47.26
2023-04-14T06:44:54.110Z,48.08
2023-04-14T06:47:22.602Z,50.77
2023-04-14T06:49:51.078Z,54.90
2023-04-14T06:52:21.060Z,59.08
2023-04-14T06:54:52.520Z,62.55
2023-04-14T06:57:20.766Z,66.00
2023-04-14T06:59:51.311Z,69.80
2023-04-14T07:02:19.637Z,73.70
2023-04-14T07:04:50.806Z,77.22
2023-04-14T07:07:20.873Z,80.97
2023-04-14T07:09:51.484Z,84.59
2023-04-14T07:12:24.072Z,88.09
2023-04-14T07:14:58.701Z,90.87
2023-04-14T07:17:27.191Z,94.37
2023-04-14T07:19:56.919Z,96.07
2023-04-14T07:22:25.304Z,95.79
2023-04-14T07:24:56.560Z,95.59
2023-04-14T07:27:29.034Z,96.74
2023-04-14T07:29:58.592Z,97.25
2023-04-14T07:32:31.279Z,98.01
2023-04-14T07:34:59.731Z,98.77
2023-04-14T07:37:30.665Z,99.90
2023-04-14T07:39:59.268Z,100.00
2023-04-14T07:42:29.005Z,100.00
2023-04-14T07:45:02.837Z,100.00
2023-04-14T07:47:32.188Z,100.00
2023-04-14T07:50:00.507Z,100.00
2023-04-14T07:52:32.745Z,100.00
2023-04-14T07:55:07.928Z,100.00
2023-04-14T07:57:36.153Z,100.00
2023-04-14T08:00:04.682Z,100.00
2023-04-14T08:02:41.294Z,100.00
2023-04-14T08:05:11.060Z,100.00
2023-04-14T08:07:39.992Z,100.00
2023-04-14T08:10:14.526Z,100.00
2023-04-14T08:12:46.827Z,100.00
2023-04-14T08:15:15.656Z,100.00
2023-04-14T08:17:45.256Z,100.00
2023-04-14T08:20:13.362Z,100.00
2023-04-14T08:22:43.382Z,100.00
2023-04-14T08:25:12.383Z,100.00
2023-04-14T08:27:41.657Z,100.00
2023-04-14T08:30:11.547Z,100.00
2023-04-14T08:32:43.643Z,100.00
2023-04-14T08:35:40.051Z,100.00
2023-04-14T08:38:04.296Z,100.00
2023-04-14T08:40:40.336Z,100.00
2023-04-14T08:43:08.624Z,100.00
2023-04-14T08:45:40.239Z,100.00
2023-04-14T08:48:10.753Z,100.00
2023-04-14T08:50:49.536Z,100.00
2023-04-14T08:53:18.589Z,100.00
2023-04-14T08:55:46.928Z,100.00
2023-04-14T08:58:16.223Z,100.00
2023-04-14T09:00:48.791Z,100.00
2023-04-14T09:03:19.302Z,100.00
2023-04-14T09:05:49.303Z,100.00
2023-04-14T09:08:22.860Z,100.00
2023-04-14T09:10:51.648Z,100.00
2023-04-14T09:13:21.142Z,100.00
2023-04-14T09:15:53.360Z,100.00
2023-04-14T09:18:22.120Z,100.00
2023-04-14T09:21:50.085Z,100.00
2023-04-14T09:23:44.029Z,100.00
2023-04-14T09:26:13.579Z,99.31
2023-04-14T09:28:42.164Z,96.27
2023-04-14T09:31:10.862Z,93.09
2023-04-14T09:33:40.653Z,92.10
2023-04-14T09:36:24.999Z,92.30
2023-04-14T09:38:53.466Z,91.62
2023-04-14T09:41:23.516Z,90.52
2023-04-14T09:43:55.520Z,89.41
2023-04-14T09:46:25.247Z,88.68
2023-04-14T09:48:55.706Z,88.24
2023-04-14T09:51:28.429Z,87.11
2023-04-14T09:54:05.174Z,85.11
2023-04-14T09:56:35.585Z,84.44
2023-04-14T09:59:04.423Z,82.68
2023-04-14T10:01:34.574Z,81.02
2023-04-14T10:04:03.331Z,79.26
2023-04-14T10:06:32.575Z,78.12
2023-04-14T10:09:01.691Z,77.96
2023-04-14T10:11:33.076Z,78.17
2023-04-14T10:14:09.212Z,78.53
2023-04-14T10:16:37.434Z,79.27
2023-04-14T10:19:05.815Z,79.27
2023-04-14T10:21:42.887Z,79.56
2023-04-14T10:24:11.795Z,79.53
2023-04-14T10:26:42.855Z,78.64
2023-04-14T10:29:17.438Z,77.30
2023-04-14T10:31:51.228Z,75.57
2023-04-14T10:34:20.381Z,73.43
2023-04-14T10:36:49.114Z,71.82
2023-04-14T10:39:24.369Z,69.88
2023-04-14T10:41:54.092Z,68.18
2023-04-14T10:44:40.626Z,67.57
2023-04-14T10:47:11.658Z,66.17
2023-04-14T10:49:41.516Z,63.94
2023-04-14T10:52:15.720Z,60.46
2023-04-14T10:54:53.908Z,58.64
2023-04-14T10:57:22.867Z,56.24
2023-04-14T10:59:58.953Z,54.89
2023-04-14T11:02:32.333Z,54.80
2023-04-14T11:05:05.352Z,55.40
2023-04-14T11:07:38.436Z,55.73
2023-04-14T11:10:24.807Z,55.74
2023-04-14T11:13:06.111Z,54.03
2023-04-14T11:16:03.459Z,52.32
2023-04-14T11:18:44.928Z,51.54
2023-04-14T11:21:16.601Z,51.63
2023-04-14T11:23:49.391Z,51.82
2023-04-14T11:26:26.158Z,51.09
2023-04-14T11:29:03.530Z,50.88
2023-04-14T11:31:33.175Z,49.31
2023-04-14T11:34:04.019Z,48.21
2023-04-14T11:36:39.262Z,47.60
2023-04-14T11:39:12.557Z,46.90
2023-04-14T11:41:43.472Z,46.25
2023-04-14T11:44:19.234Z,44.83
2023-04-14T11:46:48.485Z,44.04
2023-04-14T11:49:22.261Z,43.21
2023-04-14T11:51:54.149Z,43.15
2023-04-14T11:54:23.387Z,43.72
2023-04-14T11:56:51.475Z,43.57
2023-04-14T11:59:20.843Z,41.88
2023-04-14T12:01:51.418Z,39.17
2023-04-14T12:04:20.787Z,37.91
2023-04-14T12:09:32.322Z,38.80
2023-04-14T12:12:08.792Z,36.32
2023-04-14T12:14:49.481Z,34.08
2023-04-14T12:17:22.030Z,32.72
2023-04-14T12:19:51.789Z,32.24
2023-04-14T12:22:28.004Z,31.99
2023-04-14T12:27:55.789Z,28.37
2023-04-14T12:30:26.590Z,26.21
2023-04-14T12:32:57.374Z,24.89
2023-04-14T12:35:25.537Z,24.38
2023-04-14T12:37:54.339Z,23.72
2023-04-14T12:40:39.573Z,21.86
2023-04-14T12:43:07.903Z,18.88
2023-04-14T12:48:13.978Z,19.51
2023-04-14T12:50:42.236Z,19.28
2023-04-14T12:53:28.835Z,19.56
2023-04-14T12:56:09.733Z,19.72
2023-04-14T13:01:23.811Z,19.42
2023-04-14T13:03:56.211Z,16.58
2023-04-14T13:06:25.689Z,14.58
2023-04-14T13:08:57.030Z,11.73
2023-04-14T13:11:25.525Z,9.29
2023-04-14T13:13:55.225Z,6.94
2023-04-14T13:16:26.610Z,5.35
2023-04-14T13:18:55.749Z,5.18
2023-04-14T13:21:23.916Z,5.17
2023-04-14T13:23:51.931Z,4.46
2023-04-14T13:26:20.144Z,3.73
2023-04-14T13:28:51.793Z,3.25
2023-04-14T13:31:20.935Z,2.51
2023-04-14T13:33:49.171Z,1.57
2023-04-14T13:36:17.247Z,1.96
2023-04-14T13:39:20.869Z,3.88
2023-04-14T13:41:49.656Z,4.21
2023-04-14T13:44:19.470Z,3.80
2023-04-14T13:46:49.523Z,1.35
2023-04-14T13:49:18.190Z,0.08
2023-04-14T13:51:46.624Z,0.00
2023-04-14T13:54:14.895Z,0.00
2023-04-14T13:56:43.092Z,0.00
2023-04-14T13:59:14.087Z,0.00
2023-04-14T14:01:42.448Z,0.00
2023-04-14T14:04:11.600Z,0.00
2023-04-14T14:06:39.855Z,0.00
2023-04-14T14:09:08.308Z,0.00
2023-04-14T14:11:42.245Z,0.00
2023-04-14T14:14:16.150Z,0.00
2023-04-14T14:16:44.628Z,0.00
2023-04-14T14:19:17.179Z,0.00
2023-04-14T14:21:47.793Z,0.00
2023-04-14T14:24:16.574Z,0.00
2023-04-14T14:26:44.735Z,0.00
2023-04-14T14:29:13.183Z,0.00
2023-04-14T14:31:41.655Z,0.00
2023-04-14T14:34:09.959Z,0.00
2023-04-14T14:36:37.980Z,0.00
2023-04-14T14:39:09.789Z,0.00
2023-04-14T14:41:38.993Z,0.00
2023-04-14T14:44:07.341Z,0.00
2023-04-14T14:46:36.348Z,0.00
2023-04-14T14:49:05.505Z,0.00
2023-04-14T14:51:34.023Z,0.00
2023-04-14T14:54:10.077Z,0.00
2023-04-14T14:56:39.203Z,0.00
2023-04-14T14:59:08.583Z,0.00
2023-04-14T15:01:37.340Z,0.00
2023-04-14T15:04:06.783Z,0.00
2023-04-14T15:06:36.564Z,0.00
2023-04-14T15:09:05.751Z,0.00
2023-04-14T15:11:38.916Z,0.00
2023-04-14T15:14:09.687Z,0.00
2023-04-14T15:16:38.284Z,0.00
2023-04-14T15:19:12.404Z,0.00
2023-04-14T15:21:43.573Z,0.00
2023-04-14T15:24:11.771Z,0.00
2023-04-14T15:26:39.760Z,0.00
2023-04-14T15:29:08.061Z,0.00
2023-04-14T15:31:36.383Z,0.00
2023-04-14T15:34:05.103Z,0.00
2023-04-14T15:36:35.560Z,0.00
2023-04-14T15:39:03.510Z,0.00
2023-04-14T15:41:32.875Z,0.00
2023-04-14T15:44:02.120Z,0.00
2023-04-14T15:46:30.669Z,0.00
2023-04-14T15:49:03.828Z,0.00
2023-04-14T15:51:32.449Z,0.00
2023-04-14T15:54:01.508Z,0.00
2023-04-14T15:56:31.502Z,0.00
2023-04-14T15:59:00.703Z,0.00
2023-04-14T16:01:28.735Z,0.00
2023-04-14T16:03:57.805Z,0.00
2023-04-14T16:06:28.674Z,0.00
2023-04-14T16:11:34.105Z,0.00
2023-04-14T16:14:05.129Z,0.00
2023-04-14T16:16:35.011Z,0.00
2023-04-14T16:19:03.205Z,0.00
2023-04-14T16:21:33.999Z,0.00
2023-04-14T16:24:02.909Z,0.00
2023-04-14T16:26:31.438Z,0.00
2023-04-14T16:29:02.544Z,0.00
2023-04-14T16:31:31.952Z,0.00
2023-04-14T16:34:00.661Z,0.00
2023-04-14T16:36:29.176Z,0.00
2023-04-14T16:38:58.422Z,0.00
2023-04-14T16:41:27.241Z,0.00
2023-04-14T16:44:00.496Z,0.00
2023-04-14T16:46:29.351Z,0.00
2023-04-14T16:48:57.470Z,0.00
2023-04-14T16:51:28.018Z,0.00
2023-04-14T16:53:56.644Z,0.00
2023-04-14T16:56:24.609Z,0.00
2023-04-14T16:58:52.960Z,0.00
2023-04-14T17:01:21.084Z,0.00
2023-04-14T17:03:49.561Z,0.00
2023-04-14T17:06:17.723Z,0.00
2023-04-14T17:08:47.267Z,0.00
2023-04-14T17:11:15.800Z,0.00
2023-04-14T17:13:44.046Z,0.00
2023-04-14T17:16:18.884Z,0.00
2023-04-14T17:18:48.338Z,0.00
2023-04-14T17:21:16.640Z,0.00
2023-04-14T17:23:55.539Z,0.00
2023-04-14T17:26:26.354Z,0.00
2023-04-14T17:28:54.322Z,0.00
2023-04-14T17:31:24.756Z,0.00
2023-04-14T17:33:53.526Z,0.00
2023-04-14T17:36:21.660Z,0.00
2023-04-14T17:38:50.962Z,0.00
2023-04-14T17:41:18.979Z,0.00
2023-04-14T17:43:48.452Z,0.00
2023-04-14T17:46:17.696Z,0.00
2023-04-14T17:48:47.595Z,0.00
2023-04-14T17:51:17.408Z,0.00
2023-04-14T17:53:48.039Z,0.00
2023-04-14T17:56:20.450Z,0.00
2023-04-14T17:58:52.044Z,0.00
2023-04-14T18:01:20.307Z,0.00
2023-04-14T18:03:49.259Z,0.00
2023-04-14T18:06:20.369Z,0.00
2023-04-14T18:08:51.692Z,0.00
2023-04-14T18:11:21.432Z,0.00
2023-04-14T18:13:49.645Z,0.00
2023-04-14T18:16:20.018Z,0.00
2023-04-14T18:18:51.574Z,0.00
2023-04-14T18:21:19.804Z,0.00
2023-04-14T18:28:56.289Z,0.00
2023-04-14T18:31:25.283Z,0.00
2023-04-14T18:34:14.006Z,0.00
2023-04-14T18:36:44.268Z,0.00
2023-04-14T18:39:12.656Z,0.00
2023-04-14T18:41:45.594Z,0.00
2023-04-14T18:44:15.876Z,0.00
2023-04-14T18:46:44.857Z,0.00
2023-04-14T18:49:13.575Z,0.00
2023-04-14T18:51:42.073Z,0.00
2023-04-14T18:54:10.571Z,0.00
2023-04-14T18:56:39.262Z,0.00
2023-04-14T18:59:10.213Z,0.00
2023-04-14T19:01:39.370Z,0.00
2023-04-14T19:04:08.092Z,0.00
2023-04-14T19:06:36.651Z,0.00
2023-04-14T19:09:04.869Z,0.00
2023-04-14T19:11:42.210Z,0.00
2023-04-14T19:14:12.899Z,0.00
2023-04-14T19:16:41.261Z,0.00
2023-04-14T19:19:09.235Z,0.00
2023-04-14T19:21:39.190Z,0.00
2023-04-14T19:24:08.294Z,0.00
2023-04-14T19:26:40.545Z,0.00
2023-04-14T19:29:09.586Z,0.00
2023-04-14T19:31:38.651Z,0.00
2023-04-14T19:34:06.852Z,0.00
2023-04-14T19:36:35.355Z,0.00
2023-04-14T19:39:04.038Z,0.00
2023-04-14T19:41:34.734Z,0.00
2023-04-14T19:44:04.878Z,0.00
2023-04-14T19:46:35.727Z,0.00
2023-04-14T19:49:06.011Z,0.00
2023-04-14T19:51:35.039Z,0.00
2023-04-14T19:54:07.194Z,0.00
2023-04-14T19:56:35.223Z,0.00
2023-04-14T19:59:04.070Z,0.00
2023-04-14T20:01:32.434Z,0.00
2023-04-14T20:04:06.705Z,0.00
2023-04-14T20:06:44.029Z,0.00
2023-04-14T20:09:14.476Z,0.00
2023-04-14T20:11:42.836Z,0.00
2023-04-14T20:14:11.501Z,0.00
2023-04-14T20:16:40.727Z,0.00
2023-04-14T20:19:09.574Z,0.00
2023-04-14T20:21:38.672Z,0.00
2023-04-14T20:24:06.742Z,0.00
2023-04-14T20:26:42.753Z,0.00
2023-04-14T20:29:12.326Z,0.00
2023-04-14T20:31:42.885Z,0.00
2023-04-14T20:34:11.711Z,0.00
2023-04-14T20:36:40.217Z,0.00
2023-04-14T20:39:08.601Z,0.00
2023-04-14T20:41:37.672Z,0.00
2023-04-14T20:44:06.388Z,0.00
2023-04-14T20:46:34.565Z,0.00
2023-04-14T20:49:04.299Z,0.00
2023-04-14T20:51:33.971Z,0.00
2023-04-14T20:54:03.025Z,0.00
2023-04-14T20:56:36.208Z,0.00
2023-04-14T20:59:06.791Z,0.33
2023-04-14T21:01:34.971Z,4.26
2023-04-14T21:04:04.429Z,7.52
2023-04-14T21:06:33.536Z,10.46
2023-04-14T21:09:02.014Z,14.41
2023-04-14T21:11:31.912Z,18.41
2023-04-14T21:15:40.009Z,21.31
2023-04-14T21:16:49.044Z,24.32
2023-04-14T21:19:17.416Z,25.69
2023-04-14T21:21:49.688Z,24.81
2023-04-14T21:24:18.425Z,24.14
2023-04-14T21:26:46.940Z,23.16
2023-04-14T21:29:15.205Z,22.13
2023-04-14T21:31:45.203Z,21.06
2023-04-14T21:34:13.750Z,21.49
2023-04-14T21:36:41.900Z,21.86
2023-04-14T21:39:10.153Z,20.94
2023-04-14T21:41:38.121Z,21.22
2023-04-14T21:44:06.924Z,21.22
2023-04-14T21:46:35.139Z,21.55
2023-04-14T21:49:04.118Z,21.54
2023-04-14T21:51:32.622Z,20.60
2023-04-14T21:54:01.921Z,17.53
2023-04-14T21:56:31.461Z,14.96
2023-04-14T21:59:02.606Z,13.25
2023-04-14T22:01:32.523Z,10.96
2023-04-14T22:04:01.381Z,9.20
2023-04-14T22:06:29.850Z,8.36
2023-04-14T22:09:04.663Z,8.10
2023-04-14T22:11:33.358Z,8.06
2023-04-14T22:14:02.950Z,6.88
2023-04-14T22:16:37.969Z,6.07
2023-04-14T22:19:09.301Z,6.51
2023-04-14T22:21:37.952Z,6.65
2023-04-14T22:24:07.326Z,5.21
2023-04-14T22:26:36.649Z,3.72
2023-04-14T22:29:04.855Z,2.10
2023-04-14T22:31:33.256Z,2.03
2023-04-14T22:34:02.665Z,2.08
2023-04-14T22:36:33.771Z,1.02
2023-04-14T22:39:02.090Z,0.15
2023-04-14T22:41:32.110Z,0.00
2023-04-14T22:44:00.647Z,0.65
2023-04-14T22:46:31.055Z,2.40
2023-04-14T22:48:59.430Z,3.75
2023-04-14T22:51:30.501Z,5.12
2023-04-14T22:53:59.257Z,6.18
2023-04-14T22:56:28.419Z,7.97
2023-04-14T22:58:59.482Z,8.28
2023-04-14T23:01:29.439Z,8.86
2023-04-14T23:03:57.483Z,10.74
2023-04-14T23:06:25.870Z,11.50
2023-04-14T23:08:59.659Z,13.34
2023-04-14T23:11:29.091Z,17.04
2023-04-14T23:13:57.359Z,19.91
2023-04-14T23:16:28.754Z,22.49
2023-04-14T23:19:07.050Z,24.17
2023-04-14T23:21:35.519Z,25.13
2023-04-14T23:24:04.519Z,26.73
2023-04-14T23:26:41.823Z,29.28
2023-04-14T23:29:11.007Z,31.20
2023-04-14T23:31:39.304Z,32.92
2023-04-14T23:34:12.774Z,36.23
2023-04-14T23:36:46.058Z,38.91
2023-04-14T23:39:15.303Z,40.24
2023-04-14T23:41:48.914Z,41.24
2023-04-14T23:44:17.579Z,42.50
2023-04-14T23:46:46.234Z,43.72
2023-04-14T23:49:24.614Z,43.66
2023-04-14T23:52:03.585Z,42.28
2023-04-14T23:54:31.906Z,39.96
2023-04-14T23:57:01.799Z,38.16
2023-04-14T23:59:30.108Z,36.64
